Time;durP1;ratioP1;P1;durP2;ratioP2;P2;SDS_P1;SDS_P2;PMS_P1;PMS_P2;Temp;Humidity;BMP_temperature;BMP_pressure;BME280_temperature;BME280_humidity;BME280_pressure;Samples;Min_cycle;Max_cycle;Signal;HPM_P1;HPM_P2
2022/09/21 00:00:38;;;;;;;4.85;1.60;;;;;;;12.14;49.42;93293.88;2067924;69;20199;-76
2022/09/21 00:03:04;;;;;;;3.80;1.65;;;;;;;12.07;49.71;93292.78;2070773;69;20243;-76
2022/09/21 00:05:30;;;;;;;2.20;1.65;;;;;;;12.06;49.21;93296.22;2071171;69;20243;-75
2022/09/21 00:07:58;;;;;;;2.03;1.35;;;;;;;12.07;48.65;93292.78;2071131;69;20168;-76
2022/09/21 00:10:25;;;;;;;3.38;1.42;;;;;;;11.93;49.37;93298.22;2071019;69;20333;-75
2022/09/21 00:12:50;;;;;;;3.67;1.67;;;;;;;11.68;50.07;93295.13;2070860;69;20162;-76
2022/09/21 00:15:16;;;;;;;3.90;2.00;;;;;;;11.64;49.64;93289.22;2067486;69;20148;-74
2022/09/21 00:17:43;;;;;;;6.78;1.67;;;;;;;11.56;50.05;93289.44;2071222;69;20588;-75
2022/09/21 00:20:08;;;;;;;5.38;1.52;;;;;;;11.55;49.66;93284.41;2067736;69;20152;-74
2022/09/21 00:22:34;;;;;;;4.88;1.55;;;;;;;11.60;49.45;93286.16;2067364;69;20292;-74
2022/09/21 00:25:02;;;;;;;3.65;1.40;;;;;;;11.51;49.49;93284.88;2070856;69;20637;-75
2022/09/21 00:27:28;;;;;;;3.65;1.52;;;;;;;11.27;50.41;93281.16;2071019;69;20253;-75
2022/09/21 00:29:55;;;;;;;4.50;1.80;;;;;;;11.31;50.68;93286.31;2067520;69;20183;-75
2022/09/21 00:32:23;;;;;;;1.77;1.35;;;;;;;11.17;50.34;93281.19;2071011;69;20208;-74
2022/09/21 00:34:51;;;;;;;3.67;1.30;;;;;;;10.99;50.14;93284.84;2070988;69;20751;-75
2022/09/21 00:37:18;;;;;;;5.55;1.38;;;;;;;10.87;50.53;93287.59;2070788;69;20182;-76
2022/09/21 00:39:44;;;;;;;2.97;1.55;;;;;;;10.86;50.53;93297.38;2067336;69;20166;-75
2022/09/21 00:42:17;;;;;;;5.07;1.75;;;;;;;10.79;50.22;93290.56;2070749;69;20167;-75
2022/09/21 00:44:42;;;;;;;4.28;1.55;;;;;;;10.96;49.39;93286.81;2070831;69;20474;-75
2022/09/21 00:47:15;;;;;;;3.80;1.60;;;;;;;10.60;50.94;93296.28;2071025;69;20121;-75
2022/09/21 00:49:43;;;;;;;4.25;1.40;;;;;;;10.73;49.98;93287.34;2071007;69;20149;-75
2022/09/21 00:52:11;;;;;;;4.35;1.65;;;;;;;10.71;49.71;93284.38;2070933;69;20140;-75
2022/09/21 00:55:01;;;;;;;4.75;1.70;;;;;;;10.67;50.34;93284.84;2070781;69;20159;-75
2022/09/21 00:57:30;;;;;;;3.38;1.70;;;;;;;10.61;50.59;93290.03;2070692;69;20211;-75
2022/09/21 01:00:00;;;;;;;2.83;1.60;;;;;;;10.43;51.37;93289.50;2070516;69;20152;-74
2022/09/21 01:02:27;;;;;;;5.88;1.45;;;;;;;10.25;52.24;93282.56;2071069;69;20219;-75
2022/09/21 01:04:54;;;;;;;4.25;1.70;;;;;;;10.35;51.29;93294.53;2070955;69;20155;-74
2022/09/21 01:07:27;;;;;;;1.65;1.40;;;;;;;10.26;51.44;93292.47;2067357;69;20148;-75
2022/09/21 01:09:57;;;;;;;3.38;1.60;;;;;;;10.14;51.45;93288.78;2067699;69;20156;-75
2022/09/21 01:12:37;;;;;;;5.20;1.70;;;;;;;10.22;50.70;93286.56;2070083;69;20194;-75
2022/09/21 01:15:22;;;;;;;5.30;1.50;;;;;;;9.98;51.90;93296.06;2071193;69;20213;-76
2022/09/21 01:17:50;;;;;;;2.88;1.60;;;;;;;9.74;52.33;93286.59;2070805;69;20255;-75
2022/09/21 01:20:23;;;;;;;3.53;1.75;;;;;;;9.82;52.28;93298.44;2070876;69;20291;-76
2022/09/21 01:23:15;;;;;;;3.53;1.60;;;;;;;10.15;50.36;93293.09;2070944;69;20644;-75
2022/09/21 01:25:57;;;;;;;3.72;2.17;;;;;;;9.88;52.38;93293.25;2070868;69;20152;-75
2022/09/21 01:28:51;;;;;;;4.93;2.03;;;;;;;9.85;52.36;93298.00;2070578;69;20152;-75
2022/09/21 01:31:23;;;;;;;3.78;1.90;;;;;;;9.86;52.40;93298.75;2067572;69;20156;-75
2022/09/21 01:33:54;;;;;;;3.00;1.75;;;;;;;9.71;52.90;93294.13;2070896;69;20600;-75
2022/09/21 01:36:25;;;;;;;3.03;1.90;;;;;;;9.87;52.73;93300.94;2070758;69;20603;-76
2022/09/21 01:38:56;;;;;;;2.85;1.67;;;;;;;9.54;53.29;93299.91;2070515;69;20247;-75
2022/09/21 01:41:25;;;;;;;1.85;1.58;;;;;;;9.61;52.30;93302.56;2070214;69;20259;-75
2022/09/21 01:44:00;;;;;;;4.82;1.50;;;;;;;9.62;53.14;93306.09;2070760;69;20132;-74
2022/09/21 01:46:29;;;;;;;4.35;1.52;;;;;;;9.72;52.04;93301.25;2067386;69;20452;-75
2022/09/21 01:49:04;;;;;;;4.45;1.67;;;;;;;9.57;52.21;93305.06;2070748;69;20631;-74
2022/09/21 01:51:33;;;;;;;2.97;1.63;;;;;;;9.41;52.52;93312.31;2070760;69;20175;-75
2022/09/21 01:54:08;;;;;;;2.97;1.40;;;;;;;9.49;52.35;93312.91;2068889;69;20175;-75
2022/09/21 01:56:37;;;;;;;3.50;2.60;;;;;;;9.34;52.72;93310.38;2070908;69;20626;-78
2022/09/21 01:59:13;;;;;;;4.53;2.42;;;;;;;9.25;53.87;93316.69;2070655;69;20487;-77
2022/09/21 02:01:45;;;;;;;4.25;2.33;;;;;;;9.32;52.74;93308.16;2070785;69;20156;-75
2022/09/21 02:04:12;;;;;;;6.32;2.60;;;;;;;8.74;55.46;93310.78;2070597;69;20152;-75
2022/09/21 02:06:44;;;;;;;4.70;2.40;;;;;;;9.07;54.13;93310.44;2070933;69;20301;-75
2022/09/21 02:09:10;;;;;;;4.50;2.08;;;;;;;9.12;53.55;93313.00;2070361;69;20175;-75
2022/09/21 02:11:41;;;;;;;6.07;2.15;;;;;;;9.14;53.59;93310.31;2070642;69;20162;-75
2022/09/21 02:14:09;;;;;;;4.60;2.22;;;;;;;9.19;53.30;93322.59;2070739;69;20156;-75
2022/09/21 02:16:59;;;;;;;8.60;2.80;;;;;;;8.96;54.00;93308.94;2070771;69;20581;-75
2022/09/21 02:19:43;;;;;;;8.45;2.00;;;;;;;8.87;54.14;93316.00;2063364;69;20251;-75
2022/09/21 02:22:16;;;;;;;4.22;1.70;;;;;;;8.94;53.73;93316.47;2064183;69;20179;-74
2022/09/21 02:25:09;;;;;;;3.70;1.98;;;;;;;8.84;54.03;93319.22;2063879;69;20243;-75
2022/09/21 02:27:44;;;;;;;4.38;1.90;;;;;;;8.83;54.17;93326.91;2062326;69;20288;-74
2022/09/21 02:30:24;;;;;;;4.80;1.90;;;;;;;8.83;54.26;93321.31;2064023;69;20140;-75
2022/09/21 02:32:57;;;;;;;2.92;1.50;;;;;;;8.75;53.99;93326.31;2063637;69;20165;-75
2022/09/21 02:35:35;;;;;;;5.03;1.90;;;;;;;8.77;53.90;93329.25;2059823;69;20141;-75
2022/09/21 02:38:13;;;;;;;3.40;2.03;;;;;;;8.58;55.29;93332.00;2063283;69;20144;-75
2022/09/21 02:40:55;;;;;;;3.80;2.17;;;;;;;8.59;55.54;93334.19;2060544;69;20549;-75
2022/09/21 02:43:30;;;;;;;2.45;1.90;;;;;;;8.50;55.44;93337.69;2063646;69;20157;-75
2022/09/21 02:46:05;;;;;;;3.72;1.75;;;;;;;8.42;55.91;93341.94;2063952;69;20580;-75
2022/09/21 02:48:38;;;;;;;4.05;2.00;;;;;;;8.48;54.59;93339.63;2063780;69;20511;-75
2022/09/21 02:51:13;;;;;;;5.22;2.10;;;;;;;8.39;55.23;93338.97;2063994;69;20276;-75
2022/09/21 02:53:41;;;;;;;4.22;2.38;;;;;;;8.46;54.79;93342.25;2063752;69;20187;-75
2022/09/21 02:56:08;;;;;;;3.75;1.75;;;;;;;8.35;55.82;93343.50;2063749;69;20153;-75
2022/09/21 02:58:41;;;;;;;2.90;1.90;;;;;;;8.37;55.79;93344.41;2063839;69;20195;-75
2022/09/21 03:01:15;;;;;;;3.88;1.67;;;;;;;8.30;56.08;93348.03;2063705;69;20172;-75
2022/09/21 03:03:45;;;;;;;2.00;1.63;;;;;;;8.31;55.43;93343.91;2063744;69;20165;-77
2022/09/21 03:06:12;;;;;;;3.88;2.15;;;;;;;8.31;55.12;93348.78;2063765;69;20573;-76
2022/09/21 03:08:43;;;;;;;3.17;1.80;;;;;;;8.24;55.48;93347.53;2064006;69;20188;-75
2022/09/21 03:11:15;;;;;;;3.03;2.08;;;;;;;8.27;55.14;93346.41;2063687;69;20156;-76
2022/09/21 03:13:53;;;;;;;4.60;1.73;;;;;;;8.20;55.78;93349.28;2063179;69;20145;-76
2022/09/21 03:16:21;;;;;;;4.97;1.95;;;;;;;8.18;55.51;93352.69;2063779;69;20145;-77
2022/09/21 03:18:47;;;;;;;2.60;1.65;;;;;;;8.23;55.60;93346.06;2068529;69;20641;-75
2022/09/21 03:21:13;;;;;;;3.95;2.00;;;;;;;8.11;56.51;93348.66;2070678;69;20168;-76
2022/09/21 03:23:39;;;;;;;6.20;2.00;;;;;;;7.96;57.83;93351.63;2070279;69;20503;-76
2022/09/21 03:26:05;;;;;;;4.25;1.92;;;;;;;8.01;57.29;93347.81;2071143;69;20296;-77
2022/09/21 03:28:35;;;;;;;4.53;2.10;;;;;;;7.92;57.33;93358.97;2070869;69;20195;-77
2022/09/21 03:31:01;;;;;;;6.38;2.10;;;;;;;7.88;57.20;93357.34;2071151;69;20171;-77
2022/09/21 03:33:26;;;;;;;4.45;1.95;;;;;;;7.93;56.99;93364.03;2071217;69;20172;-77
2022/09/21 03:35:52;;;;;;;3.63;1.92;;;;;;;7.94;56.32;93354.28;2071346;69;20181;-77
2022/09/21 03:38:19;;;;;;;4.32;2.00;;;;;;;7.90;55.99;93368.72;2071333;69;20297;-77
2022/09/21 03:40:49;;;;;;;2.72;2.10;;;;;;;7.96;56.16;93364.91;2071286;69;20156;-77
2022/09/21 03:43:15;;;;;;;3.40;2.10;;;;;;;7.72;56.85;93363.69;2071573;69;20163;-76
2022/09/21 03:45:41;;;;;;;3.95;2.67;;;;;;;7.84;56.65;93373.09;2071673;69;20588;-76
2022/09/21 03:48:09;;;;;;;6.28;3.33;;;;;;;7.71;56.99;93374.16;2071440;69;20155;-76
2022/09/21 03:50:36;;;;;;;3.38;2.25;;;;;;;7.82;56.48;93379.25;2071505;69;20176;-76
2022/09/21 03:53:02;;;;;;;5.43;2.20;;;;;;;7.83;56.08;93383.56;2071246;69;20156;-77
2022/09/21 03:55:28;;;;;;;5.15;2.47;;;;;;;7.68;57.61;93380.91;2071242;69;20156;-77
2022/09/21 03:57:54;;;;;;;4.20;2.40;;;;;;;7.60;57.33;93375.38;2071366;69;20152;-77
2022/09/21 04:00:20;;;;;;;7.82;4.38;;;;;;;7.62;57.30;93386.03;2071366;69;20610;-77
2022/09/21 04:02:46;;;;;;;6.28;4.00;;;;;;;7.59;57.21;93387.16;2071389;69;20239;-77
2022/09/21 04:05:17;;;;;;;5.28;3.50;;;;;;;7.54;57.07;93385.34;2071415;69;20143;-77
2022/09/21 04:07:46;;;;;;;6.13;3.13;;;;;;;7.43;57.82;93391.44;2071292;69;20152;-77
2022/09/21 04:10:15;;;;;;;8.10;3.50;;;;;;;7.55;56.43;93389.63;2071485;69;20140;-78
2022/09/21 04:12:42;;;;;;;4.15;2.58;;;;;;;7.44;57.64;93393.66;2071356;69;20227;-77
2022/09/21 04:15:13;;;;;;;4.55;2.30;;;;;;;7.37;58.74;93397.25;2071344;69;20133;-77
2022/09/21 04:17:39;;;;;;;9.80;4.88;;;;;;;7.32;58.87;93395.44;2071099;69;20235;-77
2022/09/21 04:20:06;;;;;;;18.63;9.65;;;;;;;7.36;58.36;93396.50;2071437;69;20196;-77
2022/09/21 04:22:31;;;;;;;19.38;11.00;;;;;;;7.34;58.01;93398.41;2071557;69;20167;-76
2022/09/21 04:24:57;;;;;;;19.58;12.43;;;;;;;7.35;58.01;93395.03;2071634;69;20564;-76
2022/09/21 04:27:23;;;;;;;12.93;7.82;;;;;;;7.31;57.73;93393.97;2071363;69;20180;-76
2022/09/21 04:29:49;;;;;;;8.50;5.25;;;;;;;7.26;57.81;93403.34;2071296;69;20159;-77
2022/09/21 04:32:15;;;;;;;8.90;5.22;;;;;;;7.28;57.90;93400.69;2071465;69;20172;-76
2022/09/21 04:34:40;;;;;;;8.43;5.55;;;;;;;7.26;57.70;93403.34;2071415;69;20190;-76
2022/09/21 04:37:07;;;;;;;6.85;4.50;;;;;;;7.32;57.27;93404.56;2071394;69;20233;-76
2022/09/21 04:39:33;;;;;;;7.60;4.07;;;;;;;7.25;57.63;93404.66;2071277;69;20168;-77
2022/09/21 04:41:59;;;;;;;5.38;3.78;;;;;;;7.16;58.54;93406.03;2071333;69;20229;-77
2022/09/21 04:44:25;;;;;;;6.65;4.28;;;;;;;7.09;58.35;93406.81;2067828;69;20176;-77
2022/09/21 04:46:50;;;;;;;4.28;3.17;;;;;;;7.16;57.74;93408.09;2070399;69;20175;-77
2022/09/21 04:49:16;;;;;;;6.63;3.78;;;;;;;7.03;58.94;93409.13;2068124;69;20142;-77
2022/09/21 04:51:42;;;;;;;7.15;3.58;;;;;;;7.07;58.21;93413.00;2068093;69;20615;-77
2022/09/21 04:54:07;;;;;;;6.35;4.05;;;;;;;7.09;58.59;93410.34;2071172;69;20176;-77
2022/09/21 04:56:33;;;;;;;8.23;3.05;;;;;;;7.08;58.71;93410.94;2071042;69;20144;-76
2022/09/21 04:58:59;;;;;;;8.23;2.88;;;;;;;7.07;58.59;93412.25;2071317;69;20182;-77
2022/09/21 05:01:24;;;;;;;9.63;3.75;;;;;;;7.06;58.85;93416.38;2071041;69;20186;-76
2022/09/21 05:03:50;;;;;;;9.63;4.50;;;;;;;7.03;58.99;93420.31;2071286;69;20148;-76
2022/09/21 05:06:15;;;;;;;17.58;9.18;;;;;;;7.00;59.09;93429.84;2071326;69;20140;-76
2022/09/21 05:11:26;;;;;;;11.73;6.65;;;;;;;7.07;58.28;93426.25;2070797;69;20557;-75
2022/09/21 05:13:52;;;;;;;12.25;6.03;;;;;;;6.96;59.11;93429.50;2071044;69;20163;-76
2022/09/21 05:16:18;;;;;;;11.32;5.53;;;;;;;6.98;59.19;93435.28;2067666;69;20183;-75
2022/09/21 05:18:44;;;;;;;9.18;5.50;;;;;;;6.94;59.60;93435.66;2071226;69;20180;-76
2022/09/21 05:21:12;;;;;;;8.20;4.78;;;;;;;7.00;59.10;93436.19;2071349;69;20156;-76
2022/09/21 05:23:38;;;;;;;9.32;4.90;;;;;;;6.93;59.51;93425.06;2070884;69;20175;-76
2022/09/21 05:26:04;;;;;;;7.55;4.70;;;;;;;6.90;60.17;93434.59;2071223;69;20156;-76
2022/09/21 05:28:30;;;;;;;11.32;5.65;;;;;;;6.86;60.28;93438.50;2067902;69;20594;-75
2022/09/21 05:31:16;;;;;;;7.65;5.50;;;;;;;6.80;59.75;93426.81;2071513;69;20259;-77
2022/09/21 05:33:58;;;;;;;8.77;4.47;;;;;;;6.87;59.94;93428.81;2071850;69;20159;-77
2022/09/21 05:36:40;;;;;;;5.45;3.80;;;;;;;6.84;59.50;93432.00;2071738;69;20160;-76
2022/09/21 05:39:06;;;;;;;6.93;3.47;;;;;;;6.85;59.22;93431.44;2071937;69;20242;-76
2022/09/21 05:41:33;;;;;;;7.22;3.17;;;;;;;6.86;59.50;93437.78;2071781;69;20245;-77
2022/09/21 05:43:59;;;;;;;5.07;3.25;;;;;;;6.85;59.71;93437.03;2071787;69;20227;-76
2022/09/21 05:46:43;;;;;;;6.10;2.90;;;;;;;6.86;60.05;93438.50;2072036;69;20306;-75
2022/09/21 05:49:14;;;;;;;4.93;2.72;;;;;;;6.95;59.13;93436.41;2071266;69;20243;-77
2022/09/21 05:52:01;;;;;;;6.38;3.08;;;;;;;6.80;59.68;93437.25;2071272;69;20179;-76
2022/09/21 05:55:02;;;;;;;8.50;2.80;;;;;;;6.85;59.98;93437.03;2071215;69;20140;-76
2022/09/21 05:57:53;;;;;;;8.80;4.07;;;;;;;6.85;59.65;93427.88;2071208;69;20141;-77
2022/09/21 06:00:22;;;;;;;8.05;4.43;;;;;;;6.86;59.92;93443.38;2071255;69;20161;-76
2022/09/21 06:02:59;;;;;;;7.35;5.20;;;;;;;6.79;60.00;93444.91;2071309;69;20171;-77
2022/09/21 06:05:25;;;;;;;13.60;7.63;;;;;;;6.81;60.39;93447.88;2071290;69;20568;-77
2022/09/21 06:07:51;;;;;;;7.30;4.90;;;;;;;6.82;60.66;93454.22;2071168;69;20228;-77
2022/09/21 06:10:17;;;;;;;7.72;4.95;;;;;;;6.91;60.32;93452.84;2071168;69;20246;-77
2022/09/21 06:12:43;;;;;;;8.38;5.10;;;;;;;6.83;60.54;93450.13;2071164;69;20152;-77
2022/09/21 06:15:12;;;;;;;10.07;5.40;;;;;;;6.76;61.41;93453.69;2071124;69;20202;-75
2022/09/21 06:17:38;;;;;;;8.68;5.57;;;;;;;6.77;61.67;93452.38;2070944;69;20288;-75
2022/09/21 06:20:06;;;;;;;11.27;5.80;;;;;;;6.77;61.01;93455.16;2071333;69;20176;-76
2022/09/21 06:22:33;;;;;;;10.48;5.00;;;;;;;6.81;61.01;93449.94;2071111;69;20162;-75
2022/09/21 06:24:58;;;;;;;8.80;4.45;;;;;;;6.83;61.24;93453.66;2070888;69;20196;-76
2022/09/21 06:27:24;;;;;;;6.18;3.80;;;;;;;6.91;60.16;93448.00;2070813;69;20196;-76
2022/09/21 06:29:51;;;;;;;7.75;4.18;;;;;;;6.85;60.74;93448.22;2067712;69;20148;-75
2022/09/21 06:32:17;;;;;;;7.25;4.30;;;;;;;6.82;61.03;93448.63;2070013;69;20172;-75
2022/09/21 06:34:42;;;;;;;7.63;4.70;;;;;;;6.86;60.60;93438.50;2071142;69;20559;-76
2022/09/21 06:37:08;;;;;;;12.13;4.90;;;;;;;6.90;61.02;93451.38;2070985;69;20167;-76
2022/09/21 06:39:34;;;;;;;10.10;5.57;;;;;;;6.81;61.15;93456.28;2070991;69;20144;-77
2022/09/21 06:41:59;;;;;;;8.20;5.32;;;;;;;6.85;61.01;93455.88;2070885;69;20257;-77
2022/09/21 06:44:25;;;;;;;8.18;4.40;;;;;;;6.90;60.83;93445.78;2070918;69;20208;-77
2022/09/21 06:46:51;;;;;;;10.40;4.72;;;;;;;6.88;61.08;93452.69;2071153;69;20160;-76
2022/09/21 06:49:16;;;;;;;12.55;6.07;;;;;;;6.86;61.40;93460.91;2070263;69;20143;-76
2022/09/21 06:51:42;;;;;;;6.20;4.22;;;;;;;6.93;61.54;93455.84;2068618;69;20658;-76
2022/09/21 06:54:08;;;;;;;9.43;4.25;;;;;;;6.93;61.53;93456.59;2070944;69;20600;-76
2022/09/21 06:56:34;;;;;;;13.30;5.55;;;;;;;6.95;60.79;93456.00;2070724;69;20221;-76
2022/09/21 06:59:00;;;;;;;9.82;5.80;;;;;;;6.88;61.47;93449.91;2073235;69;20644;-76
2022/09/21 07:01:26;;;;;;;12.27;6.93;;;;;;;6.86;62.10;93462.97;2069896;69;20179;-76
2022/09/21 07:03:52;;;;;;;10.85;6.35;;;;;;;6.92;61.62;93457.13;2071561;69;20667;-76
2022/09/21 07:06:19;;;;;;;11.25;7.43;;;;;;;6.97;60.88;93465.34;2068046;69;20336;-75
2022/09/21 07:08:51;;;;;;;18.55;10.38;;;;;;;6.94;62.03;93458.06;2068053;69;20155;-76
2022/09/21 07:11:16;;;;;;;14.20;9.17;;;;;;;7.04;61.31;93461.72;2071264;69;20562;-75
2022/09/21 07:13:42;;;;;;;12.98;8.40;;;;;;;6.98;62.16;93455.63;2071416;69;20244;-75
2022/09/21 07:16:08;;;;;;;13.70;8.13;;;;;;;6.94;62.82;93460.13;2071546;69;20194;-76
2022/09/21 07:18:35;;;;;;;16.63;10.02;;;;;;;6.99;61.52;93454.28;2071412;69;20162;-76
2022/09/21 07:21:03;;;;;;;19.63;13.00;;;;;;;7.31;62.51;93452.78;2071709;69;20243;-76
2022/09/21 07:23:30;;;;;;;18.58;7.82;;;;;;;7.51;63.58;93453.72;2071668;69;20237;-77
2022/09/21 07:26:00;;;;;;;12.68;6.32;;;;;;;8.15;62.46;93452.75;2071157;69;20179;-77
2022/09/21 07:28:26;;;;;;;19.27;8.35;;;;;;;8.54;59.96;93452.34;2071766;69;20599;-75
2022/09/21 07:30:52;;;;;;;14.88;7.88;;;;;;;9.11;58.63;93443.50;2071547;69;20152;-75
2022/09/21 07:33:17;;;;;;;19.10;9.80;;;;;;;9.30;58.81;93451.31;2068328;69;20182;-75
2022/09/21 07:35:51;;;;;;;14.20;7.75;;;;;;;9.77;58.04;93457.69;2069461;69;20144;-76
2022/09/21 07:38:16;;;;;;;11.90;6.80;;;;;;;10.18;55.71;93449.47;2067299;69;20140;-75
2022/09/21 07:40:42;;;;;;;8.73;5.07;;;;;;;10.74;54.75;93452.16;2066107;69;20163;-76
2022/09/21 07:43:08;;;;;;;10.63;5.10;;;;;;;10.68;54.62;93454.53;2071491;69;20148;-76
2022/09/21 07:45:33;;;;;;;9.27;5.68;;;;;;;10.84;54.76;93454.94;2071703;69;20140;-76
2022/09/21 07:48:03;;;;;;;13.35;6.70;;;;;;;12.26;51.91;93455.59;2071315;69;20567;-75
2022/09/21 07:50:30;;;;;;;15.38;8.55;;;;;;;10.93;54.23;93457.75;2071753;69;20216;-76
2022/09/21 07:52:58;;;;;;;12.98;8.70;;;;;;;12.39;50.55;93451.50;2071557;69;20223;-74
2022/09/21 07:55:23;;;;;;;11.75;6.97;;;;;;;11.64;52.16;93447.16;2068156;69;20166;-73
2022/09/21 08:00:35;;;;;;;9.43;5.47;;;;;;;12.68;49.49;93446.34;2071491;69;20250;-75
2022/09/21 08:03:01;;;;;;;8.88;5.30;;;;;;;13.17;47.94;93446.63;2071521;69;20211;-75
2022/09/21 08:05:26;;;;;;;8.48;4.13;;;;;;;13.26;48.48;93444.34;2071430;69;20128;-76
2022/09/21 08:07:57;;;;;;;7.70;4.40;;;;;;;13.09;48.44;93439.72;2071214;69;20152;-76
2022/09/21 08:10:27;;;;;;;5.28;3.38;;;;;;;14.17;46.25;93440.69;2067858;69;20179;-76
2022/09/21 08:12:55;;;;;;;7.45;3.30;;;;;;;13.61;46.57;93436.66;2071493;69;20182;-74
2022/09/21 08:15:20;;;;;;;6.63;4.18;;;;;;;14.26;46.15;93439.81;2071594;69;20283;-74
2022/09/21 08:17:47;;;;;;;6.40;3.45;;;;;;;14.44;44.99;93437.31;2070255;69;20149;-75
2022/09/21 08:20:13;;;;;;;6.75;3.90;;;;;;;15.59;43.78;93436.69;2066177;69;20188;-76
2022/09/21 08:22:40;;;;;;;6.05;3.38;;;;;;;15.43;44.08;93430.13;2069242;69;20144;-75
2022/09/21 08:25:06;;;;;;;4.53;3.53;;;;;;;14.73;44.18;93431.94;2068084;69;20176;-76
2022/09/21 08:27:31;;;;;;;6.13;2.90;;;;;;;15.36;43.91;93431.16;2071327;69;20147;-75
2022/09/21 08:29:57;;;;;;;5.97;3.50;;;;;;;15.57;44.32;93430.16;2071488;69;20132;-73
2022/09/21 08:32:22;;;;;;;4.93;2.58;;;;;;;16.14;43.50;93428.25;2067543;69;20592;-74
2022/09/21 08:34:48;;;;;;;6.68;2.50;;;;;;;16.44;43.17;93422.63;2071376;69;20177;-76
2022/09/21 08:37:18;;;;;;;4.07;2.67;;;;;;;16.15;42.46;93428.97;2066820;69;20157;-73
2022/09/21 08:39:43;;;;;;;5.22;2.70;;;;;;;15.34;43.59;93425.38;2068162;69;20152;-74
2022/09/21 08:42:25;;;;;;;5.25;2.63;;;;;;;15.86;42.36;93423.94;2067987;69;20160;-75
2022/09/21 08:45:00;;;;;;;4.20;2.58;;;;;;;16.17;42.57;93418.47;2068165;69;20236;-75
2022/09/21 08:47:36;;;;;;;3.80;2.28;;;;;;;16.96;42.53;93424.56;2064780;69;20248;-73
2022/09/21 08:50:04;;;;;;;4.40;2.40;;;;;;;17.26;41.50;93424.53;2070179;69;20174;-74
2022/09/21 08:52:31;;;;;;;4.78;2.50;;;;;;;17.43;40.86;93426.03;2071398;69;20232;-75
2022/09/21 08:55:01;;;;;;;6.13;2.40;;;;;;;16.71;39.24;93416.16;2071447;69;20160;-76
2022/09/21 08:57:32;;;;;;;5.63;2.40;;;;;;;17.15;40.20;93416.91;2071390;69;20146;-77
2022/09/21 09:00:00;;;;;;;4.70;2.08;;;;;;;18.18;38.38;93420.19;2071518;69;20244;-76
2022/09/21 09:02:28;;;;;;;5.55;2.20;;;;;;;18.44;39.03;93415.66;2068105;69;20171;-76
2022/09/21 09:05:22;;;;;;;5.30;2.30;;;;;;;19.11;37.17;93411.31;2071419;69;20144;-77
2022/09/21 09:08:19;;;;;;;5.68;2.10;;;;;;;20.14;35.59;93413.84;2070070;69;20159;-76
2022/09/21 09:10:44;;;;;;;5.10;2.10;;;;;;;20.09;36.03;93409.38;2067392;69;20180;-75
2022/09/21 09:13:44;;;;;;;7.30;1.90;;;;;;;20.84;34.76;93411.31;2071308;69;20230;-76
2022/09/21 09:16:21;;;;;;;4.75;1.70;;;;;;;20.71;33.80;93413.78;2070952;69;20163;-75
2022/09/21 09:18:53;;;;;;;3.33;1.70;;;;;;;18.69;34.73;93396.75;2070640;69;20156;-76
2022/09/21 09:21:28;;;;;;;4.45;2.03;;;;;;;20.51;33.17;93405.19;2069335;69;20220;-76
2022/09/21 09:24:02;;;;;;;2.70;1.73;;;;;;;20.12;34.04;93402.34;2070807;69;20235;-75
2022/09/21 09:26:48;;;;;;;6.78;1.58;;;;;;;19.15;32.34;93395.09;2069275;69;20140;-74
2022/09/21 09:29:28;;;;;;;4.22;1.65;;;;;;;19.57;33.13;93397.41;2068775;69;20378;-74
2022/09/21 09:31:57;;;;;;;2.13;1.40;;;;;;;20.49;32.70;93385.13;2070616;69;20236;-74
2022/09/21 09:34:31;;;;;;;5.50;1.42;;;;;;;21.10;33.29;93380.69;2067624;69;20136;-74
2022/09/21 09:37:09;;;;;;;6.20;2.00;;;;;;;20.38;31.30;93371.81;2071187;69;20152;-75
2022/09/21 09:39:36;;;;;;;3.88;1.60;;;;;;;20.88;32.84;93365.66;2071334;69;20239;-74
2022/09/21 09:42:28;;;;;;;4.93;1.48;;;;;;;20.89;32.70;93359.28;2070575;69;20171;-75
2022/09/21 09:44:59;;;;;;;3.20;1.42;;;;;;;21.79;32.22;93362.09;2071203;69;20159;-75
2022/09/21 09:47:43;;;;;;;3.20;1.50;;;;;;;21.58;32.63;93355.03;2071230;69;20176;-75
2022/09/21 09:50:22;;;;;;;3.20;1.60;;;;;;;22.40;31.68;93358.09;2071226;69;20160;-75
2022/09/21 09:52:53;;;;;;;6.28;1.88;;;;;;;22.16;31.71;93358.16;2071582;69;20186;-75
2022/09/21 09:55:23;;;;;;;1.93;1.40;;;;;;;22.28;30.81;93347.03;2071698;69;20186;-76
2022/09/21 09:57:49;;;;;;;3.45;1.40;;;;;;;21.82;28.68;93341.41;2070345;69;20593;-77
2022/09/21 10:00:18;;;;;;;3.60;1.50;;;;;;;22.10;28.21;93345.78;2070211;69;20581;-77
2022/09/21 10:02:51;;;;;;;2.55;1.20;;;;;;;22.11;28.53;93341.50;2069923;69;20166;-76
2022/09/21 10:05:29;;;;;;;4.05;1.60;;;;;;;22.42;29.82;93338.09;2070625;69;20155;-76
2022/09/21 10:07:55;;;;;;;2.47;1.58;;;;;;;22.86;28.23;93339.91;2070926;69;20152;-77
2022/09/21 10:10:21;;;;;;;3.72;1.50;;;;;;;22.98;29.12;93334.50;2070914;69;20149;-77
2022/09/21 10:12:47;;;;;;;3.67;1.50;;;;;;;23.33;27.66;93331.06;2070521;69;20265;-76
2022/09/21 10:15:17;;;;;;;1.55;1.30;;;;;;;23.74;27.49;93337.03;2070821;69;20591;-78
2022/09/21 10:17:47;;;;;;;3.08;1.40;;;;;;;23.90;27.90;93328.00;2071493;69;20219;-78
2022/09/21 10:20:16;;;;;;;2.05;1.27;;;;;;;24.29;27.41;93329.53;2074384;69;20213;-77
2022/09/21 10:22:52;;;;;;;2.80;1.30;;;;;;;23.96;27.05;93319.50;2073579;69;20702;-80
2022/09/21 10:25:19;;;;;;;3.65;1.20;;;;;;;24.72;25.59;93319.53;2067447;69;20148;-77
2022/09/21 10:27:48;;;;;;;2.70;1.33;;;;;;;25.20;25.60;93304.53;2069071;69;20491;-77
2022/09/21 10:30:37;;;;;;;4.88;1.52;;;;;;;25.29;25.69;93311.91;2070654;69;20152;-77
2022/09/21 10:33:17;;;;;;;3.53;1.15;;;;;;;26.24;24.94;93296.59;2067463;69;20183;-76
2022/09/21 10:35:51;;;;;;;2.20;1.10;;;;;;;24.32;25.74;93290.72;2071148;69;20612;-77
2022/09/21 10:38:19;;;;;;;2.00;1.20;;;;;;;25.59;24.47;93294.31;2070860;69;20175;-76
2022/09/21 10:40:46;;;;;;;2.80;1.10;;;;;;;25.50;22.79;93294.88;2070989;69;20144;-74
2022/09/21 10:43:35;;;;;;;2.47;1.00;;;;;;;25.82;23.33;93289.59;2071222;69;20167;-75
2022/09/21 10:46:01;;;;;;;3.00;1.30;;;;;;;26.32;22.73;93279.38;2067940;69;20501;-74
2022/09/21 10:48:27;;;;;;;2.65;1.17;;;;;;;26.97;22.88;93285.81;2071377;69;20213;-75
2022/09/21 10:50:54;;;;;;;2.75;1.00;;;;;;;27.13;21.84;93279.47;2071510;69;20193;-78
2022/09/21 10:53:27;;;;;;;2.80;1.10;;;;;;;26.36;22.16;93283.03;2071147;69;20167;-75
2022/09/21 10:56:11;;;;;;;1.65;0.90;;;;;;;28.40;20.65;93280.19;2071265;69;20240;-77
2022/09/21 10:58:38;;;;;;;1.40;0.90;;;;;;;29.23;19.40;93280.38;2071343;69;20580;-75
2022/09/21 11:01:19;;;;;;;2.15;1.00;;;;;;;28.84;17.57;93279.59;2070993;69;20209;-77
2022/09/21 11:04:08;;;;;;;1.50;1.00;;;;;;;28.84;18.60;93273.78;2071149;69;20606;-76
2022/09/21 11:06:44;;;;;;;1.90;0.90;;;;;;;30.26;17.53;93270.03;2068505;69;20156;-77
2022/09/21 11:09:38;;;;;;;1.42;0.85;;;;;;;31.65;17.12;93266.19;2068094;69;20221;-76
2022/09/21 11:12:13;;;;;;;2.88;1.05;;;;;;;32.98;15.15;93267.56;2064496;69;20140;-76
2022/09/21 11:14:41;;;;;;;1.13;0.95;;;;;;;31.54;16.30;93261.94;2068162;69;20289;-75
2022/09/21 11:17:18;;;;;;;3.38;1.08;;;;;;;29.81;16.94;93257.81;2068187;69;20144;-76
2022/09/21 11:19:47;;;;;;;1.17;0.70;;;;;;;34.04;15.57;93259.97;2064809;69;20136;-76
2022/09/21 11:22:35;;;;;;;1.42;0.80;;;;;;;31.18;15.41;93245.50;2070126;69;20229;-76
2022/09/21 11:25:35;;;;;;;1.42;0.90;;;;;;;34.20;14.69;93250.19;2064649;69;20136;-78
2022/09/21 11:28:23;;;;;;;1.75;1.00;;;;;;;36.02;13.85;93249.69;2063085;69;20152;-76
2022/09/21 11:31:04;;;;;;;3.97;0.93;;;;;;;33.11;14.02;93237.44;2068168;69;20295;-74
2022/09/21 11:33:48;;;;;;;0.93;0.75;;;;;;;33.84;14.07;93237.69;2064731;69;20145;-74
2022/09/21 11:36:33;;;;;;;1.67;0.77;;;;;;;31.23;13.82;93238.19;2068268;69;20152;-77
2022/09/21 11:39:20;;;;;;;1.95;0.90;;;;;;;34.35;13.89;93236.72;2064525;69;20441;-75
2022/09/21 11:42:03;;;;;;;2.05;0.88;;;;;;;31.14;14.43;93211.38;2068040;69;20188;-75
2022/09/21 11:44:45;;;;;;;2.63;0.90;;;;;;;35.67;13.93;93221.28;2067946;69;20247;-75
2022/09/21 11:47:37;;;;;;;2.25;0.90;;;;;;;37.70;11.84;93222.59;2067887;69;20152;-75
2022/09/21 11:50:40;;;;;;;2.88;1.50;;;;;;;36.82;11.37;93219.53;2064431;69;20168;-76
2022/09/21 11:53:21;;;;;;;1.13;0.73;;;;;;;35.37;13.25;93214.69;2068068;69;20259;-75
2022/09/21 11:56:44;;;;;;;1.60;0.82;;;;;;;35.91;12.91;93208.19;2071364;69;20144;-75
2022/09/21 11:59:54;;;;;;;1.10;0.90;;;;;;;33.88;14.53;93209.13;2053951;69;20501;-75
2022/09/21 12:02:20;;;;;;;3.55;1.10;;;;;;;38.39;12.70;93211.38;2047454;70;20641;-74